< Typhoon 196518 1965 Season Typhoon 196520 >
Typhoon 196519 (NADINE)
General InformationTrack Information on Google Maps || Disaster Info.ResourceGoogle EarthGE AnimationAtom FeedGeoJSON
Detalied Best Track (Time Zone = UTC)
Year Month Day Hour Lat. Long. Pressure (hPa) Wind (kt) Class Image Chart
1965 8 14 06 16.5 115.5 1008 0 2 -- Chart
1965 8 14 12 16.7 115.3 1008 0 2 -- Chart
1965 8 14 18 17.0 115.0 1008 0 2 -- Chart
1965 8 15 00 17.3 114.5 1008 0 2 -- Chart
1965 8 15 06 17.4 114.3 1008 0 2 -- Chart
1965 8 15 12 17.5 114.1 1008 0 2 -- Chart
1965 8 15 18 17.7 113.8 1006 0 2 -- Chart
1965 8 16 00 17.9 113.6 1006 0 2 -- Chart
1965 8 16 06 18.1 113.2 1000 0 2 -- Chart
1965 8 16 12 18.3 112.9 1000 0 2 -- Chart
1965 8 16 18 18.5 112.6 998 0 2 -- Chart
1965 8 17 00 18.7 112.4 996 0 9 -- Chart
1965 8 17 06 18.6 112.0 994 0 9 -- Chart
1965 8 17 12 18.5 111.5 990 0 9 -- Chart
1965 8 17 18 18.5 110.5 992 0 9 -- Chart
1965 8 18 00 19.0 109.4 994 0 9 -- Chart
1965 8 18 06 18.5 107.6 994 0 9 -- Chart
1965 8 18 12 18.0 106.0 994 0 2 -- Chart
1965 8 18 18 17.5 104.1 1000 0 2 -- Chart
1965 8 19 00 17.0 102.6 1002 0 2 -- Chart
1965 8 19 06 17.4 101.2 1006 0 2 -- Chart
1965 8 19 12 18.6 99.5 1002 0 2 -- Chart
Japan Meteorological Agency Best Track Data | Correction Date : 1990-10-17
< Typhoon 196518 1965 Season Typhoon 196520 >

Help